Time;durP1;ratioP1;P1;durP2;ratioP2;P2;SDS_P1;SDS_P2;PMS_P1;PMS_P2;Temp;Humidity;BMP_temperature;BMP_pressure;BME280_temperature;BME280_humidity;BME280_pressure;Samples;Min_cycle;Max_cycle;Signal;HPM_P1;HPM_P2
2021/11/21 00:00:13;;;;;;;17.20;12.33;;;10.70;1.00;;;;;;5070138;28;20432;-60
2021/11/21 00:02:39;;;;;;;16.03;12.37;;;;;;;;;;5063509;28;20928;-60
2021/11/21 00:05:05;;;;;;;17.47;11.83;;;;;;;;;;5065940;28;20933;-61
2021/11/21 00:07:31;;;;;;;17.93;13.70;;;10.40;1.00;;;;;;5067227;28;20840;-60
2021/11/21 00:09:57;;;;;;;17.70;12.93;;;;;;;;;;5045311;28;20454;-61
2021/11/21 00:12:23;;;;;;;17.30;11.70;;;;;;;;;;5064547;28;20188;-61
2021/11/21 00:14:49;;;;;;;17.33;12.80;;;;;;;;;;5061759;28;20870;-61
2021/11/21 00:17:16;;;;;;;17.60;12.57;;;;;;;;;;5062762;28;20504;-62
2021/11/21 00:19:42;;;;;;;17.13;13.00;;;10.10;1.00;;;;;;5060406;28;20429;-60
2021/11/21 00:22:13;;;;;;;17.33;12.00;;;9.90;1.00;;;;;;5065324;28;20464;-60
2021/11/21 00:24:40;;;;;;;16.73;12.63;;;10.20;1.00;;;;;;5064368;28;20934;-61
2021/11/21 00:27:06;;;;;;;16.23;12.60;;;9.90;1.00;;;;;;5062793;28;20434;-61
2021/11/21 00:29:32;;;;;;;18.17;12.10;;;10.00;1.00;;;;;;5063526;28;20492;-60
2021/11/21 00:31:58;;;;;;;19.50;14.53;;;10.00;1.00;;;;;;5062504;28;20511;-61
2021/11/21 00:34:24;;;;;;;16.87;13.20;;;10.10;1.00;;;;;;5058845;28;20904;-60
2021/11/21 00:36:50;;;;;;;21.90;12.90;;;9.90;1.00;;;;;;5062019;28;20446;-60
2021/11/21 00:39:16;;;;;;;19.13;12.67;;;;;;;;;;5068303;28;20211;-60
2021/11/21 00:41:42;;;;;;;20.97;14.50;;;9.80;1.00;;;;;;5061128;28;20435;-60
2021/11/21 00:44:07;;;;;;;20.27;14.40;;;9.70;1.00;;;;;;5058403;28;20435;-60
2021/11/21 00:46:33;;;;;;;18.63;13.20;;;9.80;1.00;;;;;;5062393;28;20562;-60
2021/11/21 00:49:00;;;;;;;18.53;12.13;;;9.70;1.00;;;;;;5058800;28;20208;-60
2021/11/21 00:51:26;;;;;;;22.53;14.40;;;9.90;1.00;;;;;;5064367;28;20442;-61
2021/11/21 00:53:54;;;;;;;20.03;14.20;;;10.10;1.00;;;;;;5056539;28;20935;-60
2021/11/21 00:56:21;;;;;;;19.10;13.13;;;10.20;1.00;;;;;;5060645;28;20180;-60
2021/11/21 00:58:47;;;;;;;21.90;13.97;;;10.10;1.00;;;;;;5065830;28;20931;-60
2021/11/21 01:01:13;;;;;;;18.50;12.50;;;9.70;1.00;;;;;;5062791;28;20434;-60
2021/11/21 01:03:40;;;;;;;25.23;13.77;;;9.90;1.00;;;;;;5062660;28;20446;-61
2021/11/21 01:06:06;;;;;;;19.33;13.63;;;10.00;1.00;;;;;;5063463;28;20848;-61
2021/11/21 01:08:32;;;;;;;19.53;13.07;;;10.00;1.00;;;;;;5064093;28;20541;-60
2021/11/21 01:11:03;;;;;;;19.77;13.30;;;10.10;1.00;;;;;;5066143;28;20437;-61
2021/11/21 01:13:30;;;;;;;18.30;14.10;;;10.20;1.00;;;;;;5058134;28;20181;-61
2021/11/21 01:15:56;;;;;;;18.87;13.40;;;10.10;1.00;;;;;;5055841;28;20441;-61
2021/11/21 01:18:22;;;;;;;20.80;12.27;;;10.00;1.00;;;;;;5054987;28;20431;-60
2021/11/21 01:20:48;;;;;;;19.30;13.33;;;9.90;1.00;;;;;;5057591;28;20208;-60
2021/11/21 01:23:17;;;;;;;19.03;13.03;;;10.00;1.00;;;;;;5060925;28;20492;-61
2021/11/21 01:25:44;;;;;;;16.40;12.40;;;9.90;1.00;;;;;;5059922;28;20710;-60
2021/11/21 01:28:10;;;;;;;21.60;13.83;;;10.30;1.00;;;;;;5060522;28;20889;-60
2021/11/21 01:30:37;;;;;;;16.53;12.40;;;10.10;1.00;;;;;;5061657;28;20442;-61
2021/11/21 01:33:04;;;;;;;18.57;13.23;;;10.10;1.00;;;;;;5061865;28;20888;-60
2021/11/21 01:35:30;;;;;;;17.30;11.97;;;10.10;1.00;;;;;;5057784;28;20817;-60
2021/11/21 01:37:57;;;;;;;18.07;12.43;;;10.30;1.00;;;;;;5061402;28;20449;-60
2021/11/21 01:40:23;;;;;;;18.03;12.90;;;10.10;1.00;;;;;;5061437;28;20439;-59
2021/11/21 01:42:50;;;;;;;15.97;12.47;;;10.00;1.00;;;;;;5058343;28;20501;-60
2021/11/21 01:45:16;;;;;;;18.23;12.90;;;;;;;;;;5057001;28;20412;-61
2021/11/21 01:47:43;;;;;;;19.40;12.83;;;10.00;1.00;;;;;;5056616;28;20474;-60
2021/11/21 01:50:24;;;;;;;16.40;12.40;;;9.80;1.00;;;;;;5060158;28;20843;-61
2021/11/21 01:52:51;;;;;;;18.53;13.07;;;9.80;1.00;;;;;;5051647;28;20943;-61
2021/11/21 01:55:17;;;;;;;18.50;13.03;;;9.70;1.00;;;;;;5053382;28;20944;-60
2021/11/21 01:57:43;;;;;;;18.93;13.77;;;9.70;1.00;;;;;;5059480;28;20446;-60
2021/11/21 02:00:11;;;;;;;19.73;13.70;;;9.70;1.00;;;;;;5068866;28;20437;-61
2021/11/21 02:02:36;;;;;;;18.30;13.47;;;9.90;1.00;;;;;;5064380;28;20545;-60
2021/11/21 02:05:03;;;;;;;21.53;12.43;;;9.70;1.00;;;;;;5060389;28;20500;-60
2021/11/21 02:07:30;;;;;;;18.57;12.40;;;10.30;1.00;;;;;;5063699;28;20206;-60
2021/11/21 02:09:56;;;;;;;19.37;12.83;;;9.70;1.00;;;;;;5068096;28;20500;-60
2021/11/21 02:12:22;;;;;;;18.00;12.60;;;9.50;1.00;;;;;;5056035;28;20442;-60
2021/11/21 02:14:48;;;;;;;18.80;13.27;;;9.60;1.00;;;;;;5061081;28;20409;-61
2021/11/21 02:17:14;;;;;;;18.90;12.30;;;9.90;1.00;;;;;;5064107;28;20469;-60
2021/11/21 02:19:40;;;;;;;18.37;12.70;;;9.40;1.00;;;;;;5060857;28;20435;-61
2021/11/21 02:22:06;;;;;;;18.83;13.70;;;;;;;;;;5060391;28;20179;-60
2021/11/21 02:24:34;;;;;;;20.47;13.80;;;9.80;1.00;;;;;;5059263;28;20867;-60
2021/11/21 02:27:01;;;;;;;20.00;14.23;;;9.70;1.00;;;;;;5058005;28;20435;-61
2021/11/21 02:29:27;;;;;;;19.17;12.33;;;9.80;1.00;;;;;;5068174;28;20564;-60
2021/11/21 02:31:52;;;;;;;15.80;12.20;;;9.80;1.00;;;;;;5062083;28;20524;-60
2021/11/21 02:34:18;;;;;;;19.03;11.77;;;;;;;;;;5059890;28;20698;-60
2021/11/21 02:36:45;;;;;;;17.73;12.97;;;9.90;1.00;;;;;;5058548;28;20271;-60
2021/11/21 02:39:12;;;;;;;18.00;12.57;;;9.80;1.00;;;;;;5060628;28;20805;-59
2021/11/21 02:41:38;;;;;;;19.10;13.40;;;9.80;1.00;;;;;;5059954;28;20485;-60
2021/11/21 02:44:04;;;;;;;20.83;14.30;;;;;;;;;;5061356;28;20474;-60
2021/11/21 02:46:31;;;;;;;20.63;14.23;;;9.70;1.00;;;;;;5061386;28;20421;-59
2021/11/21 02:48:59;;;;;;;20.13;14.10;;;;;;;;;;5055915;28;20463;-61
2021/11/21 02:51:25;;;;;;;17.17;12.73;;;;;;;;;;5056769;28;20439;-61
2021/11/21 02:53:51;;;;;;;16.27;11.63;;;9.80;1.00;;;;;;5065090;28;20529;-60
2021/11/21 02:56:18;;;;;;;18.13;12.87;;;;;;;;;;5061087;28;20473;-60
2021/11/21 02:58:46;;;;;;;18.93;13.07;;;9.80;1.00;;;;;;5061817;28;20449;-60
2021/11/21 03:01:19;;;;;;;15.43;11.73;;;9.90;1.00;;;;;;5063574;28;20446;-60
2021/11/21 03:03:46;;;;;;;14.57;11.00;;;;;;;;;;5060495;28;20446;-61
2021/11/21 03:06:12;;;;;;;15.83;12.67;;;10.20;1.00;;;;;;5057989;28;20469;-61
2021/11/21 03:08:39;;;;;;;14.10;10.57;;;9.80;1.00;;;;;;5057485;28;20532;-61
2021/11/21 03:11:29;;;;;;;14.30;11.63;;;9.70;1.00;;;;;;5060360;28;20188;-59
2021/11/21 03:13:57;;;;;;;17.00;12.40;;;9.80;1.00;;;;;;5054880;28;20542;-60
2021/11/21 03:16:23;;;;;;;16.67;11.40;;;10.00;1.00;;;;;;5066979;28;20521;-61
2021/11/21 03:18:48;;;;;;;16.33;10.93;;;10.00;1.00;;;;;;5054743;28;20850;-60
2021/11/21 03:21:15;;;;;;;17.50;12.17;;;;;;;;;;5056966;28;20517;-60
2021/11/21 03:23:42;;;;;;;14.40;11.60;;;10.20;1.00;;;;;;5067038;28;20188;-60
2021/11/21 03:26:07;;;;;;;16.47;12.00;;;10.30;1.00;;;;;;5063299;28;20438;-60
2021/11/21 03:28:33;;;;;;;20.07;12.80;;;10.20;1.00;;;;;;5056320;28;20981;-60
2021/11/21 03:30:59;;;;;;;17.67;12.57;;;10.40;1.00;;;;;;5063735;28;20184;-60
2021/11/21 03:33:25;;;;;;;16.70;12.27;;;10.30;1.00;;;;;;5058664;28;20412;-60
2021/11/21 03:35:51;;;;;;;17.83;13.07;;;10.30;1.00;;;;;;5054291;28;20200;-60
2021/11/21 03:38:17;;;;;;;18.63;12.27;;;;;;;;;;5062584;28;20241;-59
2021/11/21 03:40:43;;;;;;;20.03;13.90;;;10.30;1.00;;;;;;5064319;28;20188;-59
2021/11/21 03:43:09;;;;;;;18.83;13.90;;;;;;;;;;5061871;28;20443;-60
2021/11/21 03:45:35;;;;;;;20.43;14.90;;;;;;;;;;5053605;28;20789;-60
2021/11/21 03:48:00;;;;;;;20.73;14.80;;;10.30;1.00;;;;;;5056052;28;20502;-60
2021/11/21 03:50:26;;;;;;;21.30;14.63;;;10.50;1.00;;;;;;5064267;28;20919;-60
2021/11/21 03:52:52;;;;;;;18.90;13.00;;;10.30;1.00;;;;;;5064510;28;20184;-60
2021/11/21 03:55:19;;;;;;;20.73;14.97;;;10.80;1.00;;;;;;5067538;28;20461;-60
2021/11/21 03:57:46;;;;;;;17.70;12.63;;;10.30;1.00;;;;;;5061677;28;20203;-60
2021/11/21 04:00:17;;;;;;;22.30;15.00;;;10.20;1.00;;;;;;5058675;28;20445;-60
2021/11/21 04:02:43;;;;;;;21.43;14.90;;;10.40;1.00;;;;;;5067690;28;20446;-59
2021/11/21 04:05:13;;;;;;;16.23;12.37;;;10.00;1.00;;;;;;5073264;28;20465;-61
2021/11/21 04:07:40;;;;;;;21.10;14.20;;;;;;;;;;5067673;28;20505;-60
2021/11/21 04:10:07;;;;;;;19.00;13.83;;;10.50;1.00;;;;;;5067829;28;20793;-59
2021/11/21 04:12:33;;;;;;;18.43;13.63;;;10.30;1.00;;;;;;5060555;28;20420;-60
2021/11/21 04:14:59;;;;;;;21.40;14.03;;;;;;;;;;5063646;28;20443;-60
2021/11/21 04:17:27;;;;;;;18.13;12.70;;;10.30;1.00;;;;;;5054254;28;20427;-60
2021/11/21 04:19:53;;;;;;;18.60;14.40;;;10.30;1.00;;;;;;5067461;28;20442;-60
2021/11/21 04:22:19;;;;;;;19.70;14.40;;;10.30;1.00;;;;;;5059301;28;20448;-60
2021/11/21 04:24:44;;;;;;;18.67;12.80;;;10.30;1.00;;;;;;5057565;28;20438;-60
2021/11/21 04:27:11;;;;;;;18.30;13.97;;;10.30;1.00;;;;;;5061574;28;20186;-59
2021/11/21 04:29:37;;;;;;;20.87;14.60;;;10.30;1.00;;;;;;5060162;28;20192;-59
2021/11/21 04:32:03;;;;;;;19.20;13.27;;;;;;;;;;5060868;28;20513;-61
2021/11/21 04:34:29;;;;;;;21.13;14.30;;;;;;;;;;5065850;28;20180;-60
2021/11/21 04:36:57;;;;;;;20.17;14.53;;;10.30;1.00;;;;;;5065408;28;20438;-60
2021/11/21 04:39:24;;;;;;;20.90;14.17;;;10.10;1.00;;;;;;5057198;28;20430;-59
2021/11/21 04:41:50;;;;;;;22.63;14.47;;;;;;;;;;5058234;28;20493;-60
2021/11/21 04:44:16;;;;;;;22.33;15.07;;;10.50;1.00;;;;;;5069737;28;20520;-61
2021/11/21 04:46:42;;;;;;;18.83;13.23;;;10.00;1.00;;;;;;5062983;28;20533;-61
2021/11/21 04:49:08;;;;;;;19.00;13.00;;;;;;;;;;5060750;28;20272;-60
2021/11/21 04:51:34;;;;;;;21.57;14.20;;;10.20;1.00;;;;;;5065800;28;20226;-60
2021/11/21 04:54:02;;;;;;;23.17;15.47;;;10.10;1.00;;;;;;5053119;28;20489;-61
2021/11/21 04:56:27;;;;;;;22.00;15.53;;;10.30;1.00;;;;;;5061274;28;21129;-61
2021/11/21 04:58:53;;;;;;;23.10;14.40;;;10.00;1.00;;;;;;5052518;28;20418;-61
2021/11/21 05:01:19;;;;;;;22.30;16.77;;;10.20;1.00;;;;;;5067478;28;20192;-61
2021/11/21 05:03:45;;;;;;;20.90;14.60;;;;;;;;;;5063641;28;20275;-61
2021/11/21 05:06:10;;;;;;;22.40;16.10;;;10.00;1.00;;;;;;5062090;28;20458;-60
2021/11/21 05:08:36;;;;;;;26.43;16.23;;;10.00;1.00;;;;;;5069753;28;20462;-61
2021/11/21 05:11:03;;;;;;;20.40;14.23;;;;;;;;;;5061801;28;20240;-60
2021/11/21 05:13:29;;;;;;;24.90;15.80;;;;;;;;;;5055138;28;20534;-60
2021/11/21 05:15:55;;;;;;;22.57;14.80;;;;;;;;;;5057956;28;20557;-61
2021/11/21 05:18:21;;;;;;;22.17;15.03;;;10.10;1.00;;;;;;5063536;28;20427;-60
2021/11/21 05:20:47;;;;;;;19.30;14.17;;;;;;;;;;5061847;28;20435;-60
2021/11/21 05:23:13;;;;;;;19.83;14.33;;;;;;;;;;5060859;28;20579;-60
2021/11/21 05:25:39;;;;;;;21.27;14.17;;;9.90;1.00;;;;;;5055883;28;20454;-60
2021/11/21 05:28:05;;;;;;;22.47;14.20;;;;;;;;;;5064266;28;20465;-60
2021/11/21 05:30:31;;;;;;;22.73;15.27;;;10.00;1.00;;;;;;5061379;28;20218;-60
2021/11/21 05:32:57;;;;;;;21.80;15.53;;;;;;;;;;5069768;28;20434;-60
2021/11/21 05:35:23;;;;;;;19.87;13.70;;;;;;;;;;5060743;28;20194;-60
2021/11/21 05:37:51;;;;;;;22.20;14.47;;;;;;;;;;5066379;28;20523;-60
2021/11/21 05:40:18;;;;;;;21.27;14.97;;;10.00;1.00;;;;;;5067868;28;20442;-61
2021/11/21 05:42:44;;;;;;;23.17;14.77;;;10.10;1.00;;;;;;5066950;28;20431;-60
2021/11/21 05:45:10;;;;;;;26.20;16.67;;;10.00;1.00;;;;;;5055891;28;20428;-63
2021/11/21 05:47:36;;;;;;;20.30;14.10;;;10.10;1.00;;;;;;5064825;28;20897;-61
2021/11/21 05:50:02;;;;;;;19.03;13.63;;;10.00;1.00;;;;;;5063736;28;20435;-60
2021/11/21 05:52:28;;;;;;;23.13;15.90;;;10.00;1.00;;;;;;5056605;28;20263;-60
2021/11/21 05:54:55;;;;;;;23.17;15.90;;;;;;;;;;5053236;28;20531;-60
2021/11/21 05:57:21;;;;;;;16.77;12.33;;;9.70;1.00;;;;;;5056247;28;20547;-60
2021/11/21 05:59:47;;;;;;;20.30;14.20;;;9.90;1.00;;;;;;5058675;28;20487;-59
2021/11/21 06:02:13;;;;;;;24.60;14.53;;;;;;;;;;5063412;28;20431;-60
2021/11/21 06:04:39;;;;;;;24.40;14.77;;;;;;;;;;5055045;28;20434;-60
2021/11/21 06:07:07;;;;;;;20.40;14.23;;;9.80;1.00;;;;;;5058635;28;20426;-60
2021/11/21 06:09:33;;;;;;;21.07;14.03;;;10.20;1.00;;;;;;5051772;28;20467;-59
2021/11/21 06:11:59;;;;;;;24.40;14.87;;;;;;;;;;5055807;28;20944;-60
2021/11/21 06:14:25;;;;;;;18.87;13.80;;;;;;;;;;5059309;28;20185;-60
2021/11/21 06:16:50;;;;;;;19.53;14.17;;;10.00;1.00;;;;;;5054448;28;20447;-60
2021/11/21 06:19:16;;;;;;;19.60;14.83;;;10.00;1.00;;;;;;5056745;28;20508;-60
2021/11/21 06:21:42;;;;;;;19.83;13.73;;;10.00;1.00;;;;;;5055408;28;20287;-59
2021/11/21 06:24:08;;;;;;;21.07;14.33;;;;;;;;;;5053987;28;20188;-59
2021/11/21 06:26:34;;;;;;;23.00;14.77;;;9.80;1.00;;;;;;5067888;28;20621;-60
2021/11/21 06:29:00;;;;;;;20.63;13.73;;;9.90;1.00;;;;;;5061958;28;20883;-60
2021/11/21 06:31:29;;;;;;;22.70;14.90;;;10.10;1.00;;;;;;5053992;28;20435;-60
2021/11/21 06:33:56;;;;;;;18.30;13.67;;;;;;;;;;5057450;28;20180;-60
2021/11/21 06:36:22;;;;;;;20.83;14.57;;;10.50;1.00;;;;;;5063063;28;20437;-60
2021/11/21 06:38:48;;;;;;;18.83;13.03;;;9.90;1.00;;;;;;5059137;28;20442;-60
2021/11/21 06:41:14;;;;;;;20.40;14.80;;;10.00;1.00;;;;;;5059964;28;20458;-60
2021/11/21 06:43:41;;;;;;;21.50;14.47;;;9.90;1.00;;;;;;5063280;28;20646;-60
2021/11/21 06:46:06;;;;;;;22.40;14.17;;;10.00;1.00;;;;;;5062249;28;20654;-60
2021/11/21 06:48:35;;;;;;;21.00;14.20;;;;;;;;;;5058684;28;20532;-59
2021/11/21 06:51:02;;;;;;;17.40;13.10;;;9.70;1.00;;;;;;5061242;28;20180;-60
2021/11/21 06:53:27;;;;;;;21.13;14.20;;;10.20;1.00;;;;;;5060167;28;20442;-59
2021/11/21 06:55:53;;;;;;;21.43;14.53;;;10.00;1.00;;;;;;5057288;28;20655;-60
2021/11/21 06:58:19;;;;;;;21.30;14.03;;;;;;;;;;5058047;28;20187;-60
2021/11/21 07:00:46;;;;;;;22.40;14.70;;;;;;;;;;5062899;28;20751;-60
2021/11/21 07:03:12;;;;;;;20.63;14.23;;;10.20;1.00;;;;;;5060371;28;20959;-60
2021/11/21 07:05:38;;;;;;;23.10;14.40;;;10.00;1.00;;;;;;5065909;28;20533;-60
2021/11/21 07:08:04;;;;;;;23.90;14.30;;;;;;;;;;5061918;28;20286;-61
2021/11/21 07:10:29;;;;;;;21.20;13.90;;;10.00;1.00;;;;;;5059468;28;20645;-60
2021/11/21 07:12:55;;;;;;;17.17;12.90;;;10.20;1.00;;;;;;5063045;28;20445;-59
2021/11/21 07:15:21;;;;;;;21.80;14.63;;;;;;;;;;5064839;28;20207;-60
2021/11/21 07:17:52;;;;;;;17.53;12.50;;;10.20;1.00;;;;;;5059867;28;20210;-60
2021/11/21 07:20:18;;;;;;;18.97;12.87;;;;;;;;;;5064660;28;20449;-60
2021/11/21 07:22:50;;;;;;;20.20;14.70;;;10.00;1.00;;;;;;5056569;28;20438;-60
2021/11/21 07:25:18;;;;;;;23.10;14.43;;;10.00;1.00;;;;;;5058652;28;20420;-61
2021/11/21 07:27:44;;;;;;;23.40;14.10;;;10.00;1.00;;;;;;5066903;28;20465;-60
2021/11/21 07:30:12;;;;;;;21.63;14.00;;;9.90;1.00;;;;;;5061592;28;20433;-60
2021/11/21 07:32:38;;;;;;;22.60;15.07;;;;;;;;;;5063826;28;20449;-60
2021/11/21 07:35:04;;;;;;;19.97;14.43;;;9.80;1.00;;;;;;5063379;28;20447;-59
2021/11/21 07:37:30;;;;;;;22.73;15.40;;;;;;;;;;5055954;28;20504;-61
2021/11/21 07:39:58;;;;;;;19.73;14.03;;;;;;;;;;5059118;28;20529;-60
2021/11/21 07:42:24;;;;;;;22.60;14.53;;;10.00;1.00;;;;;;5061292;28;20430;-60
2021/11/21 07:44:49;;;;;;;20.03;13.53;;;10.10;1.00;;;;;;5061452;28;20519;-61
2021/11/21 07:47:15;;;;;;;22.33;14.40;;;10.10;1.00;;;;;;5058126;28;20465;-61
2021/11/21 07:49:42;;;;;;;18.00;13.30;;;9.90;1.00;;;;;;5060523;28;20292;-60
2021/11/21 07:52:08;;;;;;;22.37;15.10;;;10.20;1.00;;;;;;5061281;28;20425;-60
2021/11/21 07:54:34;;;;;;;17.43;12.97;;;10.20;1.00;;;;;;5062952;28;20437;-61
2021/11/21 07:57:00;;;;;;;19.97;14.67;;;10.20;1.00;;;;;;5063009;28;20187;-61
2021/11/21 07:59:26;;;;;;;21.37;13.50;;;10.30;1.00;;;;;;5064080;28;20542;-61
2021/11/21 08:01:51;;;;;;;25.10;14.00;;;9.90;1.00;;;;;;5071093;28;20528;-61
2021/11/21 08:04:17;;;;;;;21.93;14.23;;;10.30;1.00;;;;;;5061018;28;20267;-61
2021/11/21 08:06:43;;;;;;;20.97;14.70;;;;;;;;;;5056113;28;20186;-62
2021/11/21 08:09:09;;;;;;;21.60;15.03;;;10.20;1.00;;;;;;5057723;28;20441;-59
2021/11/21 08:11:35;;;;;;;19.80;14.23;;;10.40;1.00;;;;;;5062646;28;20433;-60
2021/11/21 08:14:01;;;;;;;20.50;14.40;;;;;;;;;;5067507;28;20259;-60
2021/11/21 08:16:27;;;;;;;21.10;13.57;;;10.30;1.00;;;;;;5065440;28;20183;-60
2021/11/21 08:18:52;;;;;;;19.93;14.17;;;10.40;1.00;;;;;;5055390;28;20421;-60
2021/11/21 08:21:18;;;;;;;21.93;15.07;;;10.10;1.00;;;;;;5061499;28;20187;-61
2021/11/21 08:23:43;;;;;;;21.53;14.17;;;10.10;1.00;;;;;;5062255;28;20210;-60
2021/11/21 08:26:10;;;;;;;25.03;14.87;;;;;;;;;;5059529;28;20185;-61
2021/11/21 08:28:38;;;;;;;19.33;14.40;;;10.00;1.00;;;;;;5062854;28;20200;-61
2021/11/21 08:31:04;;;;;;;23.20;14.50;;;;;;;;;;5066747;28;20774;-62
2021/11/21 08:33:30;;;;;;;18.33;13.97;;;10.20;1.00;;;;;;5071905;28;20452;-63
2021/11/21 08:35:56;;;;;;;19.13;13.63;;;10.20;1.00;;;;;;5056366;28;20915;-62
2021/11/21 08:38:22;;;;;;;17.27;13.23;;;;;;;;;;5052104;28;20188;-62
2021/11/21 08:40:48;;;;;;;21.23;14.10;;;10.30;1.00;;;;;;5051534;28;20216;-61
2021/11/21 08:43:15;;;;;;;23.77;16.60;;;10.30;1.00;;;;;;5051917;28;20439;-60
2021/11/21 08:45:40;;;;;;;23.40;15.80;;;10.20;1.00;;;;;;5050785;28;20413;-62
2021/11/21 08:48:06;;;;;;;20.10;13.63;;;10.30;1.00;;;;;;5049985;28;20768;-62
2021/11/21 08:50:32;;;;;;;22.10;14.20;;;;;;;;;;5055212;28;20192;-61
2021/11/21 08:52:58;;;;;;;22.13;14.10;;;10.20;1.00;;;;;;5051600;28;20593;-63
2021/11/21 08:55:24;;;;;;;21.13;14.43;;;;;;;;;;5051838;28;20443;-62
2021/11/21 08:57:50;;;;;;;21.23;14.33;;;10.10;1.00;;;;;;5051533;28;20454;-60
2021/11/21 09:00:17;;;;;;;20.40;13.10;;;10.20;1.00;;;;;;5051517;28;20493;-62
2021/11/21 09:02:43;;;;;;;19.97;14.57;;;;;;;;;;5051435;28;20427;-62
2021/11/21 09:05:10;;;;;;;25.07;16.33;;;;;;;;;;5050792;28;21005;-61
2021/11/21 09:07:40;;;;;;;21.43;15.27;;;;;;;;;;5050965;28;20410;-62
2021/11/21 09:10:12;;;;;;;19.70;13.73;;;10.50;1.00;;;;;;5050996;28;21388;-62
2021/11/21 09:12:38;;;;;;;23.37;16.53;;;;;;;;;;5050192;28;20443;-62
2021/11/21 09:15:05;;;;;;;20.97;14.20;;;10.80;1.00;;;;;;5049648;28;20870;-61
2021/11/21 09:17:31;;;;;;;23.63;15.17;;;;;;;;;;5050989;28;20462;-61
2021/11/21 09:19:57;;;;;;;19.90;14.67;;;;;;;;;;5051434;28;20928;-62
2021/11/21 09:22:23;;;;;;;22.07;14.53;;;;;;;;;;5051613;28;20449;-61
2021/11/21 09:24:49;;;;;;;23.50;15.63;;;;;;;;;;5050756;28;20443;-60
2021/11/21 09:27:15;;;;;;;23.03;14.80;;;10.90;1.00;;;;;;5049959;28;20529;-61
2021/11/21 09:29:42;;;;;;;24.83;15.80;;;10.80;1.00;;;;;;5051004;28;20554;-62
2021/11/21 09:32:09;;;;;;;22.90;15.90;;;10.70;1.00;;;;;;5051033;28;20192;-61
2021/11/21 09:34:35;;;;;;;21.53;14.50;;;10.50;1.00;;;;;;5050939;28;20454;-61
2021/11/21 09:37:01;;;;;;;26.03;15.87;;;;;;;;;;5054476;28;20427;-61
2021/11/21 09:39:27;;;;;;;22.53;14.37;;;;;;;;;;5051998;28;20193;-61
2021/11/21 09:41:53;;;;;;;21.30;14.70;;;;;;;;;;5071321;28;20597;-60
2021/11/21 09:44:20;;;;;;;22.87;15.10;;;;;;;;;;5058031;28;20446;-61
2021/11/21 09:46:45;;;;;;;19.33;14.40;;;10.00;1.00;;;;;;5050664;28;20479;-62
2021/11/21 09:49:15;;;;;;;24.80;16.40;;;10.30;1.00;;;;;;5048226;28;20528;-60
2021/11/21 09:51:41;;;;;;;23.43;16.07;;;;;;;;;;5050433;28;20653;-61
2021/11/21 09:54:07;;;;;;;22.00;14.67;;;10.40;1.00;;;;;;5050436;28;20446;-61
2021/11/21 09:56:33;;;;;;;21.47;15.47;;;;;;;;;;5050795;28;20989;-62
2021/11/21 09:58:59;;;;;;;26.60;16.17;;;;;;;;;;5050347;28;20429;-60
2021/11/21 10:01:41;;;;;;;24.20;16.33;;;10.40;1.00;;;;;;5050059;28;20516;-61
2021/11/21 10:04:09;;;;;;;24.50;15.87;;;10.30;1.00;;;;;;5049425;28;20446;-61
2021/11/21 10:06:38;;;;;;;20.23;15.00;;;10.50;1.00;;;;;;5050416;28;20955;-61
2021/11/21 10:09:05;;;;;;;23.70;16.40;;;10.60;1.00;;;;;;5057650;28;20501;-61
2021/11/21 10:11:32;;;;;;;26.10;16.87;;;10.50;1.00;;;;;;5050073;28;20449;-60
2021/11/21 10:14:05;;;;;;;25.20;16.33;;;10.30;1.00;;;;;;5059388;28;20819;-61
2021/11/21 10:16:32;;;;;;;22.60;16.43;;;;;;;;;;5048438;28;20488;-61
2021/11/21 10:19:00;;;;;;;24.30;15.77;;;10.50;1.00;;;;;;5049704;28;20458;-60
2021/11/21 10:21:29;;;;;;;26.80;15.80;;;10.40;1.00;;;;;;5050035;28;20520;-61
2021/11/21 10:24:21;;;;;;;22.70;15.83;;;10.60;1.00;;;;;;5050020;28;20435;-61
2021/11/21 10:27:01;;;;;;;22.17;15.37;;;10.60;1.00;;;;;;5049329;28;20447;-61
2021/11/21 10:29:30;;;;;;;22.50;14.60;;;10.60;1.00;;;;;;5049285;28;20549;-59
2021/11/21 10:31:56;;;;;;;24.87;14.80;;;10.40;1.00;;;;;;5060704;28;21012;-60
2021/11/21 10:34:22;;;;;;;24.10;15.77;;;10.50;1.00;;;;;;5049378;28;20414;-59
2021/11/21 10:36:48;;;;;;;22.67;15.07;;;10.60;1.00;;;;;;5053835;28;20445;-60
2021/11/21 10:39:16;;;;;;;27.13;17.87;;;;;;;;;;5050197;28;20196;-62
2021/11/21 10:41:44;;;;;;;21.77;14.33;;;10.20;1.00;;;;;;5061736;28;20449;-60
2021/11/21 10:44:10;;;;;;;20.43;14.27;;;;;;;;;;5058880;28;20432;-61
2021/11/21 10:46:47;;;;;;;23.87;15.40;;;10.40;1.00;;;;;;5049539;28;20813;-62
2021/11/21 10:49:21;;;;;;;20.70;13.90;;;10.40;1.00;;;;;;5049051;28;20466;-61
2021/11/21 10:51:57;;;;;;;22.50;13.73;;;10.40;1.00;;;;;;5049880;28;21027;-62
2021/11/21 10:54:29;;;;;;;26.53;15.77;;;10.50;1.00;;;;;;5049877;28;20453;-60
2021/11/21 10:56:57;;;;;;;22.30;14.83;;;10.60;1.00;;;;;;5048999;28;20468;-62
2021/11/21 10:59:49;;;;;;;22.63;15.60;;;10.70;1.00;;;;;;5049681;28;20865;-60
2021/11/21 11:02:16;;;;;;;22.23;14.57;;;10.70;1.00;;;;;;5047598;28;20524;-62
2021/11/21 11:05:03;;;;;;;21.13;15.10;;;10.70;1.00;;;;;;5049066;28;20968;-61
2021/11/21 11:07:31;;;;;;;19.93;13.00;;;10.60;1.00;;;;;;5048137;28;20474;-60
2021/11/21 11:09:57;;;;;;;24.57;15.07;;;10.90;1.00;;;;;;5049897;28;20855;-61
2021/11/21 11:12:24;;;;;;;24.13;14.40;;;11.70;1.00;;;;;;5049591;28;20435;-61
2021/11/21 11:14:53;;;;;;;19.60;14.07;;;10.70;1.00;;;;;;5049730;28;20196;-60
2021/11/21 11:17:19;;;;;;;24.57;13.83;;;;;;;;;;5048842;28;20699;-62
2021/11/21 11:19:45;;;;;;;19.87;13.50;;;11.10;1.00;;;;;;5048375;28;20417;-60
2021/11/21 11:22:12;;;;;;;16.83;11.20;;;;;;;;;;5047094;28;20438;-61
2021/11/21 11:24:41;;;;;;;18.93;11.60;;;11.30;1.00;;;;;;5048127;28;20446;-60
2021/11/21 11:27:31;;;;;;;18.40;11.53;;;11.30;1.00;;;;;;5047567;28;20798;-61
2021/11/21 11:29:57;;;;;;;16.60;11.33;;;11.20;1.00;;;;;;5045449;28;20443;-62
2021/11/21 11:32:34;;;;;;;18.43;11.73;;;11.10;1.00;;;;;;5046152;28;20868;-61
2021/11/21 11:35:01;;;;;;;17.70;13.00;;;;;;;;;;5048922;28;20428;-62
2021/11/21 11:37:39;;;;;;;19.30;12.20;;;10.90;1.00;;;;;;5048965;28;20471;-62
2021/11/21 11:40:06;;;;;;;17.53;11.30;;;10.90;1.00;;;;;;5048070;28;20488;-61
2021/11/21 11:42:34;;;;;;;16.70;12.20;;;10.90;1.00;;;;;;5049556;28;20957;-62
2021/11/21 11:45:01;;;;;;;19.80;11.87;;;;;;;;;;5049057;28;20845;-60
2021/11/21 11:47:28;;;;;;;19.17;12.77;;;10.90;1.00;;;;;;5048489;28;20479;-61
2021/11/21 11:49:55;;;;;;;20.27;12.70;;;;;;;;;;5049363;28;20495;-62
2021/11/21 11:52:54;;;;;;;19.27;13.00;;;10.50;1.00;;;;;;5047724;28;20515;-61
2021/11/21 11:55:20;;;;;;;17.87;11.33;;;10.60;1.00;;;;;;5048279;28;20448;-62
2021/11/21 11:57:46;;;;;;;15.33;11.43;;;;;;;;;;5049332;28;20502;-61
2021/11/21 12:00:32;;;;;;;16.77;10.70;;;10.30;1.00;;;;;;5048772;28;20435;-61
2021/11/21 12:02:59;;;;;;;16.70;11.40;;;10.60;1.00;;;;;;5048194;28;20435;-60
2021/11/21 12:05:33;;;;;;;19.30;11.90;;;10.80;1.00;;;;;;5048940;28;20444;-61
2021/11/21 12:08:12;;;;;;;17.23;11.50;;;10.70;1.00;;;;;;5048051;28;20461;-61
2021/11/21 12:10:49;;;;;;;17.67;11.60;;;10.70;1.00;;;;;;5051752;28;20949;-60
2021/11/21 12:13:35;;;;;;;17.60;11.60;;;10.50;1.00;;;;;;5053230;28;20427;-61
2021/11/21 12:16:13;;;;;;;16.07;11.80;;;10.50;1.00;;;;;;5052456;28;20442;-60
2021/11/21 12:18:58;;;;;;;23.67;12.67;;;10.40;1.00;;;;;;5052265;28;20446;-61
2021/11/21 12:21:45;;;;;;;17.40;12.07;;;10.50;1.00;;;;;;5050679;28;20863;-61
2021/11/21 12:24:32;;;;;;;17.43;11.60;;;10.60;1.00;;;;;;5053030;28;20928;-62
2021/11/21 12:26:59;;;;;;;19.27;12.13;;;10.20;1.00;;;;;;5052484;28;20449;-60
2021/11/21 12:29:34;;;;;;;17.60;11.90;;;10.70;1.00;;;;;;5052476;28;20839;-61
2021/11/21 12:32:21;;;;;;;17.97;11.53;;;10.90;1.00;;;;;;5051253;28;21026;-61
2021/11/21 12:34:49;;;;;;;20.47;12.90;;;10.50;1.00;;;;;;5052256;28;20446;-61
2021/11/21 12:37:19;;;;;;;16.80;10.50;;;10.70;1.00;;;;;;5056503;28;21002;-61
2021/11/21 12:39:51;;;;;;;20.40;12.40;;;10.50;1.00;;;;;;5051695;28;20435;-61
2021/11/21 12:42:23;;;;;;;16.27;11.43;;;10.50;1.00;;;;;;5052608;28;20442;-61
2021/11/21 12:44:49;;;;;;;17.00;11.97;;;;;;;;;;5052113;28;20952;-62
2021/11/21 12:47:15;;;;;;;20.93;12.70;;;;;;;;;;5052146;28;20533;-62
2021/11/21 12:49:43;;;;;;;16.63;11.73;;;10.30;1.00;;;;;;5050955;28;20442;-62
2021/11/21 12:52:14;;;;;;;18.37;13.10;;;10.40;1.00;;;;;;5052442;28;20458;-61
2021/11/21 12:54:41;;;;;;;18.20;12.37;;;10.50;1.00;;;;;;5052397;28;20948;-60
2021/11/21 12:57:08;;;;;;;18.70;12.67;;;10.50;1.00;;;;;;5052646;28;20402;-60
2021/11/21 12:59:57;;;;;;;15.57;10.87;;;10.40;1.00;;;;;;5052207;28;20780;-61
2021/11/21 13:02:27;;;;;;;18.77;11.20;;;10.50;1.00;;;;;;5050999;28;20422;-62
2021/11/21 13:04:53;;;;;;;16.00;10.63;;;;;;;;;;5051983;28;20462;-60